Time;durP1;ratioP1;P1;durP2;ratioP2;P2;SDS_P1;SDS_P2;PMS_P1;PMS_P2;Temp;Humidity;BMP_temperature;BMP_pressure;BME280_temperature;BME280_humidity;BME280_pressure;Samples;Min_cycle;Max_cycle;Signal;HPM_P1;HPM_P2
2023/09/16 00:01:49;;;;;;;4.00;2.50;;;;;;;9.71;69.88;100964.45;131065;1254;106747;-77
2023/09/16 00:04:55;;;;;;;3.90;2.60;;;;;;;9.66;69.84;100967.67;131055;1252;107881;-77
2023/09/16 00:08:00;;;;;;;4.20;2.70;;;;;;;9.61;69.82;100965.23;131143;1257;107809;-77
2023/09/16 00:11:09;;;;;;;5.50;2.50;;;;;;;9.58;69.83;100962.67;131054;1257;107127;-77
2023/09/16 00:14:18;;;;;;;3.80;2.30;;;;;;;9.55;69.74;100958.09;131086;1251;108677;-78
2023/09/16 00:17:24;;;;;;;3.50;2.40;;;;;;;9.51;69.89;100958.09;131031;1251;106735;-78
2023/09/16 00:20:30;;;;;;;3.70;2.30;;;;;;;9.46;70.06;100958.86;131004;1251;108656;-77
2023/09/16 00:23:35;;;;;;;3.00;2.10;;;;;;;9.41;69.72;100956.45;131007;1258;106772;-77
2023/09/16 00:26:41;;;;;;;3.30;2.40;;;;;;;9.37;69.96;100961.58;130959;1254;107808;-77
2023/09/16 00:29:47;;;;;;;3.30;2.00;;;;;;;9.32;70.00;100964.64;130969;1254;108547;-77
2023/09/16 00:32:52;;;;;;;3.30;2.10;;;;;;;9.30;70.05;100966.08;131034;1264;107448;-77
2023/09/16 00:35:58;;;;;;;3.60;2.30;;;;;;;9.28;70.10;100963.20;130818;1254;107921;-77
2023/09/16 00:39:04;;;;;;;3.50;2.30;;;;;;;9.30;70.09;100959.69;131094;1251;108652;-77
2023/09/16 00:42:10;;;;;;;3.90;2.20;;;;;;;9.33;70.17;100959.40;131007;1251;106265;-76
2023/09/16 00:45:17;;;;;;;3.20;2.20;;;;;;;9.35;70.14;100960.18;131010;1251;106472;-77
2023/09/16 00:48:23;;;;;;;2.80;2.00;;;;;;;9.34;70.18;100960.23;130914;1255;106900;-77
2023/09/16 00:51:30;;;;;;;2.80;2.10;;;;;;;9.32;70.06;100962.54;131069;1251;107551;-77
2023/09/16 00:54:36;;;;;;;3.60;2.10;;;;;;;9.30;70.00;100962.55;131019;1251;106817;-77
2023/09/16 00:57:47;;;;;;;3.30;2.30;;;;;;;9.27;69.96;100966.84;130952;1257;108716;-78
2023/09/16 01:00:53;;;;;;;4.60;2.30;;;;;;;9.22;70.18;100969.23;130941;1256;107718;-77
2023/09/16 01:03:59;;;;;;;3.50;2.20;;;;;;;9.17;70.16;100963.95;131007;1250;108249;-77
2023/09/16 01:07:06;;;;;;;5.20;2.60;;;;;;;9.14;70.23;100964.35;130995;1254;108466;-77
2023/09/16 01:10:11;;;;;;;3.10;2.10;;;;;;;9.10;70.36;100964.84;130987;1254;107970;-77
2023/09/16 01:13:17;;;;;;;3.10;1.90;;;;;;;9.06;70.20;100960.05;130962;1253;106749;-77
2023/09/16 01:16:31;;;;;;;3.30;2.30;;;;;;;9.01;70.35;100953.38;131025;1251;106755;-77
2023/09/16 01:19:45;;;;;;;3.70;2.50;;;;;;;8.99;70.25;100955.27;130819;1251;107639;-77
2023/09/16 01:22:51;;;;;;;3.10;2.20;;;;;;;8.95;70.28;100949.23;131053;1264;106689;-77
2023/09/16 01:25:57;;;;;;;2.70;1.90;;;;;;;8.89;70.46;100949.91;130967;1250;107003;-77
2023/09/16 01:29:03;;;;;;;3.00;2.00;;;;;;;8.87;70.53;100949.13;130944;1257;106899;-77
2023/09/16 01:32:11;;;;;;;4.80;2.30;;;;;;;8.88;70.52;100945.73;130941;1254;106525;-78
2023/09/16 01:35:20;;;;;;;3.00;2.20;;;;;;;8.89;70.40;100944.56;131035;1257;108786;-78
2023/09/16 01:38:28;;;;;;;3.50;2.30;;;;;;;8.89;70.60;100947.79;130810;1250;107637;-77
2023/09/16 01:41:38;;;;;;;3.60;2.20;;;;;;;8.91;70.51;100951.70;130910;1251;106739;-77
2023/09/16 01:44:44;;;;;;;3.80;2.20;;;;;;;8.89;70.25;100949.93;131016;1256;106929;-77
2023/09/16 01:47:50;;;;;;;3.40;2.20;;;;;;;8.86;70.53;100949.40;130984;1254;107684;-77
2023/09/16 01:50:57;;;;;;;3.10;2.20;;;;;;;8.85;70.42;100945.27;130993;1255;107829;-77
2023/09/16 01:54:02;;;;;;;3.50;2.30;;;;;;;8.82;70.59;100944.41;131076;1255;106801;-77
2023/09/16 01:57:08;;;;;;;4.00;2.10;;;;;;;8.80;70.56;100947.80;130839;1251;107976;-78
2023/09/16 02:00:15;;;;;;;5.10;2.60;;;;;;;8.77;70.47;100946.25;130874;1250;107703;-77
2023/09/16 02:03:20;;;;;;;4.70;2.50;;;;;;;8.74;70.66;100944.55;131017;1250;106251;-77
2023/09/16 02:06:26;;;;;;;3.40;2.30;;;;;;;8.70;70.65;100946.83;131021;1254;106745;-78
2023/09/16 02:09:32;;;;;;;4.00;2.20;;;;;;;8.66;70.71;100947.33;130918;1257;107698;-77
2023/09/16 02:12:37;;;;;;;4.10;2.40;;;;;;;8.62;70.56;100944.63;130791;1257;107042;-77
2023/09/16 02:15:44;;;;;;;3.80;2.40;;;;;;;8.58;70.68;100945.98;130938;1254;106557;-76
2023/09/16 02:18:49;;;;;;;3.70;2.30;;;;;;;8.54;70.81;100950.21;130830;1256;106708;-77
2023/09/16 02:21:55;;;;;;;4.10;2.10;;;;;;;8.51;70.82;100950.10;130811;1254;106925;-77
2023/09/16 02:25:01;;;;;;;4.10;2.20;;;;;;;8.52;70.99;100944.02;131025;1251;108061;-77
2023/09/16 02:28:07;;;;;;;3.80;2.20;;;;;;;8.55;70.95;100946.23;130827;1253;107874;-77
2023/09/16 02:31:13;;;;;;;4.40;2.40;;;;;;;8.56;70.86;100943.81;131022;1254;106665;-76
2023/09/16 02:34:20;;;;;;;3.70;2.20;;;;;;;8.57;70.76;100944.33;130964;1251;107186;-77
2023/09/16 02:37:25;;;;;;;3.90;2.40;;;;;;;8.58;70.73;100943.73;131017;1254;108111;-77
2023/09/16 02:40:31;;;;;;;4.10;2.40;;;;;;;8.58;70.77;100943.56;131000;1254;108637;-79
2023/09/16 02:43:36;;;;;;;2.90;2.20;;;;;;;8.54;70.81;100942.98;131052;1251;107682;-77
2023/09/16 02:46:42;;;;;;;3.70;2.40;;;;;;;8.49;70.86;100946.59;130924;1253;107179;-76
2023/09/16 02:49:48;;;;;;;3.70;2.30;;;;;;;8.45;70.88;100951.99;130972;1255;107144;-79
2023/09/16 02:52:53;;;;;;;3.80;2.60;;;;;;;8.41;70.81;100954.06;131030;1256;107818;-76
2023/09/16 02:55:59;;;;;;;3.80;2.60;;;;;;;8.38;70.77;100953.27;131024;1254;107879;-75
2023/09/16 02:59:05;;;;;;;3.90;2.50;;;;;;;8.35;70.78;100958.79;131163;1251;106578;-78
2023/09/16 03:02:12;;;;;;;3.80;2.80;;;;;;;8.32;70.92;100960.83;130761;1258;108462;-79
2023/09/16 03:05:18;;;;;;;5.50;3.20;;;;;;;8.29;70.92;100961.91;130861;1256;106287;-78
2023/09/16 03:08:24;;;;;;;3.30;2.20;;;;;;;8.28;70.81;100964.15;131044;1250;106482;-78
2023/09/16 03:11:30;;;;;;;4.40;2.80;;;;;;;8.23;70.78;100966.27;130785;1251;108504;-78
2023/09/16 03:14:36;;;;;;;4.20;2.70;;;;;;;8.19;70.93;100965.88;130971;1257;106245;-78
2023/09/16 03:17:42;;;;;;;4.90;2.80;;;;;;;8.17;71.05;100963.92;130872;1258;108638;-77
2023/09/16 03:20:48;;;;;;;4.70;3.10;;;;;;;8.17;70.99;100966.20;131009;1251;107176;-76
2023/09/16 03:23:54;;;;;;;4.80;2.90;;;;;;;8.17;70.87;100966.23;130921;1256;108401;-76
2023/09/16 03:27:00;;;;;;;4.50;3.00;;;;;;;8.17;70.91;100964.44;131043;1253;107870;-77
2023/09/16 03:30:08;;;;;;;5.70;3.20;;;;;;;8.20;71.02;100963.69;131001;1251;107305;-76
2023/09/16 03:33:14;;;;;;;6.00;3.40;;;;;;;8.20;70.90;100958.54;131011;1254;107076;-76
2023/09/16 03:36:22;;;;;;;5.40;3.30;;;;;;;8.18;71.00;100955.52;130823;1256;108311;-77
2023/09/16 03:39:28;;;;;;;4.70;3.10;;;;;;;8.18;70.92;100950.40;131017;1254;105783;-76
2023/09/16 03:42:34;;;;;;;4.80;3.10;;;;;;;8.14;70.74;100944.86;130993;1251;107982;-77
2023/09/16 03:45:40;;;;;;;5.10;3.40;;;;;;;8.10;70.98;100948.36;131006;1251;107663;-77
2023/09/16 03:48:46;;;;;;;5.90;3.40;;;;;;;8.05;70.99;100952.66;130987;1251;106816;-76
2023/09/16 03:51:51;;;;;;;5.60;3.20;;;;;;;8.03;70.92;100950.48;130977;1254;108523;-76
2023/09/16 03:54:57;;;;;;;5.00;3.30;;;;;;;8.02;71.03;100958.02;130873;1256;106654;-77
2023/09/16 03:58:02;;;;;;;4.40;3.10;;;;;;;7.97;70.82;100956.48;130958;1251;106459;-77
2023/09/16 04:01:08;;;;;;;5.10;3.30;;;;;;;7.90;71.02;100954.36;130950;1256;107597;-77
2023/09/16 04:04:14;;;;;;;6.40;3.60;;;;;;;7.88;71.11;100951.67;130956;1257;106963;-77
2023/09/16 04:07:19;;;;;;;6.80;3.70;;;;;;;7.86;70.94;100950.56;131023;1250;107804;-77
2023/09/16 04:10:25;;;;;;;5.00;3.00;;;;;;;7.83;71.06;100946.90;131045;1254;106730;-77
2023/09/16 04:13:31;;;;;;;5.40;3.00;;;;;;;7.81;71.00;100951.13;131011;1254;106746;-77
2023/09/16 04:16:39;;;;;;;8.10;4.50;;;;;;;7.80;71.27;100957.72;131029;1256;107694;-77
2023/09/16 04:19:45;;;;;;;7.70;4.50;;;;;;;7.82;71.18;100954.39;130980;1267;107409;-77
2023/09/16 04:22:50;;;;;;;6.80;3.80;;;;;;;7.85;71.23;100958.59;130855;1251;108398;-77
2023/09/16 04:26:00;;;;;;;7.60;3.80;;;;;;;7.90;71.39;100958.27;131044;1254;107833;-76
2023/09/16 04:29:06;;;;;;;7.30;3.60;;;;;;;7.92;71.22;100960.88;130860;1251;107257;-77
2023/09/16 04:32:12;;;;;;;6.10;3.60;;;;;;;7.95;71.15;100962.84;131001;1254;107866;-78
2023/09/16 04:35:18;;;;;;;5.70;3.70;;;;;;;7.96;71.32;100963.79;131006;1251;107410;-77
2023/09/16 04:38:25;;;;;;;6.70;3.40;;;;;;;7.97;71.39;100964.25;131065;1251;107765;-77
2023/09/16 04:41:34;;;;;;;7.80;3.90;;;;;;;7.99;71.51;100968.02;130998;1254;108414;-76
2023/09/16 04:44:44;;;;;;;10.70;3.90;;;;;;;7.99;71.51;100970.99;131018;1251;108749;-76
2023/09/16 04:47:52;;;;;;;6.90;3.80;;;;;;;7.96;71.39;100976.17;130870;1251;107684;-76
2023/09/16 04:50:58;;;;;;;5.60;3.60;;;;;;;7.97;71.66;100976.45;131000;1251;107495;-77
2023/09/16 04:54:04;;;;;;;7.10;3.90;;;;;;;8.00;71.62;100980.09;130887;1256;107361;-77
2023/09/16 04:57:10;;;;;;;7.20;3.90;;;;;;;8.02;71.71;100977.70;131006;1254;106825;-77
2023/09/16 05:00:17;;;;;;;4.40;2.80;;;;;;;8.07;71.81;100975.85;130995;1251;107464;-77
2023/09/16 05:03:23;;;;;;;4.80;2.90;;;;;;;8.13;71.83;100975.20;131064;1251;107834;-77
2023/09/16 05:06:28;;;;;;;5.40;3.30;;;;;;;8.22;72.01;100975.21;131310;1250;107801;-77
2023/09/16 05:09:35;;;;;;;5.70;3.10;;;;;;;8.34;72.24;100973.42;130923;1252;106460;-77
2023/09/16 05:12:41;;;;;;;5.00;3.20;;;;;;;8.46;72.12;100972.48;130853;1256;106755;-76
2023/09/16 05:15:51;;;;;;;5.70;3.30;;;;;;;8.58;72.36;100975.98;131036;1254;108736;-76
2023/09/16 05:18:56;;;;;;;6.10;3.70;;;;;;;8.68;72.70;100970.92;131114;1253;106711;-79
2023/09/16 05:22:04;;;;;;;6.30;4.10;;;;;;;8.79;72.67;100966.86;130891;1256;108651;-76
2023/09/16 05:25:11;;;;;;;5.90;3.90;;;;;;;8.89;73.46;100968.69;130931;1253;107732;-76
2023/09/16 05:28:17;;;;;;;7.10;4.40;;;;;;;9.03;74.17;100969.84;130785;1252;106323;-78
2023/09/16 05:31:24;;;;;;;9.40;4.50;;;;;;;9.20;74.78;100967.40;130958;1255;108394;-76
2023/09/16 05:34:29;;;;;;;8.10;3.80;;;;;;;9.41;75.27;100964.64;130894;1256;106492;-76
2023/09/16 05:37:36;;;;;;;10.00;5.00;;;;;;;9.63;75.44;100962.46;131213;1251;107264;-76
2023/09/16 05:40:41;;;;;;;7.20;4.40;;;;;;;9.85;75.63;100963.92;130994;1256;108602;-76
2023/09/16 05:43:47;;;;;;;7.40;4.60;;;;;;;10.05;75.62;100967.52;131067;1255;105928;-76
2023/09/16 05:46:54;;;;;;;7.40;5.20;;;;;;;10.25;75.81;100963.34;131064;1254;106463;-77
2023/09/16 05:50:01;;;;;;;10.10;5.30;;;;;;;10.43;76.14;100965.90;131254;1256;107798;-77
2023/09/16 05:53:08;;;;;;;5.70;4.40;;;;;;;10.57;76.35;100962.88;131024;1254;108089;-77
2023/09/16 05:56:13;;;;;;;6.80;3.90;;;;;;;10.72;76.55;100969.24;131189;1250;106653;-77
2023/09/16 05:59:23;;;;;;;8.00;4.50;;;;;;;10.86;76.40;100969.22;131035;1253;107249;-77
2023/09/16 06:02:29;;;;;;;9.10;4.80;;;;;;;11.00;76.87;100965.66;130924;1250;107953;-77
2023/09/16 06:05:35;;;;;;;7.20;4.60;;;;;;;11.16;77.30;100966.71;131124;1251;106631;-77
2023/09/16 06:08:40;;;;;;;7.20;4.70;;;;;;;11.31;77.17;100965.10;130995;1256;108503;-77
2023/09/16 06:11:46;;;;;;;7.20;5.20;;;;;;;11.47;77.60;100966.02;130863;1256;107508;-77
2023/09/16 06:14:52;;;;;;;6.90;4.80;;;;;;;11.59;77.75;100964.21;131031;1251;107950;-78
2023/09/16 06:17:58;;;;;;;7.50;4.60;;;;;;;11.70;77.90;100963.52;130951;1254;106415;-77
2023/09/16 06:21:04;;;;;;;8.90;5.00;;;;;;;11.83;78.38;100960.02;130928;1254;107707;-77
2023/09/16 06:24:10;;;;;;;7.20;4.90;;;;;;;11.99;78.20;100964.63;131171;1254;107741;-79
2023/09/16 06:27:16;;;;;;;7.90;5.10;;;;;;;12.14;78.27;100961.59;130858;1257;107766;-77
2023/09/16 06:30:22;;;;;;;8.70;5.00;;;;;;;12.28;78.38;100963.68;130851;1256;107017;-78
2023/09/16 06:33:28;;;;;;;11.60;4.90;;;;;;;12.40;78.25;100965.17;130862;1251;106913;-77
2023/09/16 06:36:34;;;;;;;7.70;5.00;;;;;;;12.50;78.46;100966.83;130836;1254;107690;-77
2023/09/16 06:39:46;;;;;;;10.50;4.70;;;;;;;12.61;78.61;100960.66;131002;1256;107600;-77
2023/09/16 06:42:56;;;;;;;8.30;5.10;;;;;;;12.74;78.71;100960.98;130866;1256;107910;-78
2023/09/16 06:46:02;;;;;;;6.30;4.60;;;;;;;12.88;78.63;100955.45;130948;1256;107658;-78
2023/09/16 06:49:08;;;;;;;8.90;5.10;;;;;;;13.05;78.69;100959.34;131074;1264;106663;-78
2023/09/16 06:52:13;;;;;;;7.10;5.30;;;;;;;13.18;78.61;100955.20;131060;1256;106138;-80
2023/09/16 06:55:19;;;;;;;7.60;5.60;;;;;;;13.29;78.53;100950.87;131100;1251;107676;-79
2023/09/16 06:58:25;;;;;;;8.60;5.20;;;;;;;13.42;78.55;100953.66;131197;1254;106585;-80
2023/09/16 07:01:30;;;;;;;6.80;4.70;;;;;;;13.51;78.70;100955.52;131388;1254;108671;-80
2023/09/16 07:04:38;;;;;;;7.10;4.90;;;;;;;13.64;78.61;100954.94;131493;1251;106892;-79
2023/09/16 07:07:44;;;;;;;7.20;5.20;;;;;;;13.80;78.76;100956.15;131089;1254;106849;-81
2023/09/16 07:10:50;;;;;;;7.40;4.90;;;;;;;13.95;78.58;100958.97;131354;1256;109351;-83
2023/09/16 07:13:56;;;;;;;6.60;5.30;;;;;;;14.08;78.41;100961.20;131555;1256;108602;-82
2023/09/16 07:17:02;;;;;;;7.70;5.00;;;;;;;14.19;78.43;100965.40;131709;1254;107443;-80
2023/09/16 07:20:08;;;;;;;6.40;4.70;;;;;;;14.29;78.56;100965.91;131448;1257;107717;-78
2023/09/16 07:23:14;;;;;;;9.40;4.40;;;;;;;14.39;78.57;100959.54;131033;1251;107680;-79
2023/09/16 07:26:19;;;;;;;6.30;4.50;;;;;;;14.53;78.61;100956.90;131010;1256;107671;-79
2023/09/16 07:29:26;;;;;;;7.90;5.00;;;;;;;14.67;78.46;100957.34;130919;1254;107606;-80
2023/09/16 07:32:32;;;;;;;6.50;4.50;;;;;;;14.82;78.33;100957.42;131149;1256;108587;-80
2023/09/16 07:35:37;;;;;;;8.10;5.20;;;;;;;14.95;78.25;100949.56;131077;1255;107627;-79
2023/09/16 07:38:43;;;;;;;7.40;4.50;;;;;;;15.06;78.10;100949.25;131120;1256;107778;-79
2023/09/16 07:41:49;;;;;;;6.20;4.80;;;;;;;15.17;78.12;100949.77;130998;1254;106734;-79
2023/09/16 07:44:55;;;;;;;6.00;4.60;;;;;;;15.23;77.94;100945.86;131124;1251;107689;-79
2023/09/16 07:48:00;;;;;;;7.10;3.90;;;;;;;15.31;77.96;100946.76;130974;1251;108682;-80
2023/09/16 07:51:06;;;;;;;6.00;3.80;;;;;;;15.42;77.74;100946.06;131121;1254;107829;-79
2023/09/16 07:54:12;;;;;;;5.80;3.70;;;;;;;15.56;77.47;100949.22;131193;1254;108475;-79
2023/09/16 07:57:17;;;;;;;4.70;3.60;;;;;;;15.70;77.52;100945.38;131154;1256;107685;-79
2023/09/16 08:00:23;;;;;;;5.70;4.00;;;;;;;15.82;77.47;100940.64;131186;1250;107707;-79
2023/09/16 08:03:28;;;;;;;5.40;3.70;;;;;;;15.94;77.23;100942.52;131096;1257;107890;-79
2023/09/16 08:06:34;;;;;;;6.80;4.30;;;;;;;16.04;77.07;100942.16;131182;1250;107835;-82
2023/09/16 08:09:40;;;;;;;7.10;3.60;;;;;;;16.11;76.80;100941.90;131182;1251;107414;-79
2023/09/16 08:12:45;;;;;;;5.00;3.40;;;;;;;16.19;76.60;100942.44;131135;1251;106711;-87
2023/09/16 08:15:51;;;;;;;6.00;3.20;;;;;;;16.26;76.44;100939.52;131415;1264;107197;-79
2023/09/16 08:18:57;;;;;;;6.60;3.00;;;;;;;16.35;76.31;100929.02;131113;1256;106552;-80
2023/09/16 08:22:02;;;;;;;5.00;2.70;;;;;;;16.46;76.37;100928.31;131332;1251;106440;-81
2023/09/16 08:25:08;;;;;;;3.80;3.00;;;;;;;16.59;76.16;100920.13;131176;1257;106937;-82
2023/09/16 08:28:14;;;;;;;3.90;3.10;;;;;;;16.73;75.93;100920.70;131026;1256;107627;-81
2023/09/16 08:31:20;;;;;;;6.10;3.10;;;;;;;16.83;75.61;100922.18;131110;1254;107114;-81
2023/09/16 08:34:25;;;;;;;4.30;2.70;;;;;;;16.92;75.49;100921.80;131071;1256;106697;-81
2023/09/16 08:37:31;;;;;;;5.80;2.70;;;;;;;17.01;75.28;100928.48;131071;1256;107568;-81
2023/09/16 08:40:36;;;;;;;5.30;3.00;;;;;;;17.07;75.16;100927.52;131605;1251;106584;-82
2023/09/16 08:43:43;;;;;;;3.50;2.30;;;;;;;17.14;74.70;100925.45;131214;1251;106536;-82
2023/09/16 08:46:56;;;;;;;3.40;2.40;;;;;;;17.25;74.42;100923.81;131125;1255;107120;-81
2023/09/16 08:50:07;;;;;;;4.90;2.60;;;;;;;17.34;74.09;100917.24;131346;1255;107729;-81
2023/09/16 08:53:15;;;;;;;3.90;2.20;;;;;;;17.42;73.91;100918.39;131313;1254;107954;-80
2023/09/16 08:56:21;;;;;;;3.30;2.50;;;;;;;17.48;73.01;100910.52;131115;1256;106936;-81
2023/09/16 08:59:28;;;;;;;2.90;2.30;;;;;;;17.55;73.14;100905.73;131160;1265;109161;-79
2023/09/16 09:02:36;;;;;;;4.20;2.80;;;;;;;17.63;73.38;100900.25;131066;1254;106653;-79
2023/09/16 09:05:43;;;;;;;6.80;2.60;;;;;;;17.71;73.33;100894.46;131144;1256;107783;-74
2023/09/16 09:08:48;;;;;;;3.60;2.60;;;;;;;17.88;74.41;100889.92;131008;1256;107552;-74
2023/09/16 09:11:56;;;;;;;8.50;2.20;;;;;;;18.13;73.91;100882.85;130952;1256;108683;-73
2023/09/16 09:15:04;;;;;;;7.20;2.30;;;;;;;18.37;72.79;100879.83;130952;1250;107623;-74
2023/09/16 09:18:12;;;;;;;3.90;2.20;;;;;;;18.55;71.13;100876.55;131112;1251;107099;-74
2023/09/16 09:21:18;;;;;;;3.40;2.00;;;;;;;18.66;71.99;100883.59;130950;1256;107687;-74
2023/09/16 09:24:23;;;;;;;3.60;2.30;;;;;;;18.75;69.20;100883.09;131069;1256;106529;-74
2023/09/16 09:27:29;;;;;;;4.50;2.40;;;;;;;18.81;70.32;100885.89;130955;1256;108126;-74
2023/09/16 09:30:34;;;;;;;4.00;2.20;;;;;;;18.86;69.43;100883.16;131009;1255;107802;-73
2023/09/16 09:33:42;;;;;;;6.10;2.40;;;;;;;18.87;69.71;100875.14;130983;1255;107099;-74
2023/09/16 09:36:48;;;;;;;2.70;2.30;;;;;;;19.03;70.64;100868.40;130927;1255;107525;-83
2023/09/16 09:40:07;;;;;;;3.50;2.50;;;;;;;19.13;70.02;100863.95;131126;1254;107122;-89
2023/09/16 09:43:20;;;;;;;4.40;2.30;;;;;;;19.26;70.34;100864.27;131201;1253;107477;-84
2023/09/16 09:46:25;;;;;;;2.70;2.20;;;;;;;19.33;69.10;100864.45;131082;1256;107915;-84
2023/09/16 09:49:31;;;;;;;4.30;2.40;;;;;;;19.32;68.29;100862.61;131143;1255;106795;-85
2023/09/16 09:52:37;;;;;;;2.50;2.20;;;;;;;19.37;69.09;100854.77;131120;1256;106724;-82
2023/09/16 09:55:43;;;;;;;4.20;2.30;;;;;;;19.44;67.97;100845.33;131184;1250;106882;-83
2023/09/16 09:58:49;;;;;;;3.40;2.60;;;;;;;19.48;68.30;100847.25;131133;1256;106980;-81
2023/09/16 10:01:55;;;;;;;2.80;2.40;;;;;;;19.51;68.42;100847.02;131077;1256;108514;-81
2023/09/16 10:05:02;;;;;;;2.80;2.30;;;;;;;19.54;67.43;100845.74;131149;1254;107643;-81
2023/09/16 10:08:08;;;;;;;5.40;2.50;;;;;;;19.59;68.28;100849.77;131223;1255;107822;-81
2023/09/16 10:11:13;;;;;;;3.60;2.60;;;;;;;19.67;67.65;100841.04;131239;1251;106755;-83
2023/09/16 10:14:19;;;;;;;4.70;2.60;;;;;;;19.67;67.91;100835.29;131058;1250;109301;-82
2023/09/16 10:17:26;;;;;;;4.90;2.60;;;;;;;19.72;68.00;100834.23;131077;1254;108492;-82
2023/09/16 10:20:32;;;;;;;5.20;2.30;;;;;;;19.74;65.34;100832.73;131125;1256;107030;-82
2023/09/16 10:23:38;;;;;;;3.80;2.60;;;;;;;19.69;65.05;100831.71;131152;1254;107410;-77
2023/09/16 10:26:46;;;;;;;3.10;2.60;;;;;;;19.67;65.88;100820.63;131091;1251;108054;-85
2023/09/16 10:29:52;;;;;;;4.70;2.80;;;;;;;19.73;66.24;100815.44;131123;1256;108010;-88
2023/09/16 10:33:01;;;;;;;4.00;2.80;;;;;;;19.82;66.26;100810.91;131062;1256;108507;-89
2023/09/16 10:36:08;;;;;;;4.10;2.80;;;;;;;19.86;66.26;100805.48;131058;1255;107498;-88
2023/09/16 10:39:15;;;;;;;6.00;2.80;;;;;;;19.94;65.76;100808.55;131204;1256;107094;-90
2023/09/16 10:42:22;;;;;;;5.30;2.30;;;;;;;20.01;65.71;100805.33;131198;1253;107827;-90
2023/09/16 10:45:29;;;;;;;4.10;2.60;;;;;;;20.03;64.36;100802.09;131141;1256;107192;-89
2023/09/16 10:48:34;;;;;;;3.80;2.80;;;;;;;19.99;63.63;100792.70;131225;1255;108064;-90
2023/09/16 10:51:42;;;;;;;3.50;2.70;;;;;;;19.98;64.25;100787.65;131213;1250;107551;-92
2023/09/16 10:54:56;;;;;;;3.60;2.70;;;;;;;20.06;64.75;100788.45;131204;1256;107025;-90
2023/09/16 10:58:10;;;;;;;3.50;2.50;;;;;;;20.11;64.40;100790.11;131144;1253;106847;-89
2023/09/16 11:01:19;;;;;;;3.90;2.80;;;;;;;20.14;63.55;100789.74;131145;1251;107664;-92
2023/09/16 11:04:25;;;;;;;3.90;2.40;;;;;;;20.15;63.11;100785.25;130903;1253;231212;-91
2023/09/16 11:07:32;;;;;;;5.60;3.10;;;;;;;20.15;62.21;100784.55;131097;1251;107031;-89
2023/09/16 11:10:39;;;;;;;4.90;2.90;;;;;;;20.19;63.06;100778.73;131291;1256;107577;-90
2023/09/16 11:13:48;;;;;;;3.40;2.50;;;;;;;20.27;64.01;100768.71;131080;1256;105634;-91
2023/09/16 11:16:55;;;;;;;3.30;2.60;;;;;;;20.28;62.23;100762.76;131115;1256;108295;-87
2023/09/16 11:20:12;;;;;;;3.90;2.90;;;;;;;20.28;61.55;100761.38;131143;1256;108028;-91
2023/09/16 11:23:18;;;;;;;4.50;2.50;;;;;;;20.30;61.63;100761.38;131157;1256;106812;-91
2023/09/16 11:26:24;;;;;;;3.90;2.60;;;;;;;20.33;61.97;100751.75;131157;1256;107347;-90
2023/09/16 11:29:31;;;;;;;2.90;2.50;;;;;;;20.39;62.56;100749.55;131883;1251;107863;-91
2023/09/16 11:32:36;;;;;;;3.90;2.40;;;;;;;20.44;61.71;100744.47;131614;1251;107577;-90
2023/09/16 11:35:42;;;;;;;9.00;2.50;;;;;;;20.48;61.61;100737.89;131167;1255;108245;-92
2023/09/16 11:39:12;;;;;;;4.60;2.50;;;;;;;20.49;61.10;100729.76;131131;1256;107621;-91
2023/09/16 11:42:19;;;;;;;3.70;2.50;;;;;;;20.51;60.54;100721.38;131102;1256;107638;-91
2023/09/16 11:45:26;;;;;;;4.60;2.60;;;;;;;20.50;58.65;100721.36;131077;1254;106737;-91
2023/09/16 11:48:52;;;;;;;4.30;2.40;;;;;;;20.51;60.71;100713.91;131119;1254;107886;-91
2023/09/16 11:51:58;;;;;;;4.10;2.50;;;;;;;20.56;60.26;100704.95;131039;1256;106576;-90
2023/09/16 11:55:04;;;;;;;3.30;2.30;;;;;;;20.62;60.75;100698.76;131094;1254;107449;-91
2023/09/16 11:58:11;;;;;;;3.80;2.50;;;;;;;20.67;60.06;100697.14;131079;1256;107488;-92
2023/09/16 12:01:22;;;;;;;5.90;2.50;;;;;;;20.73;60.68;100700.90;131193;1257;107659;-90
2023/09/16 12:04:30;;;;;;;5.20;2.00;;;;;;;20.77;60.24;100692.34;131129;1256;107562;-90
2023/09/16 12:07:37;;;;;;;3.10;2.30;;;;;;;20.78;59.88;100691.50;131180;1251;107124;-91
2023/09/16 12:10:43;;;;;;;4.60;2.50;;;;;;;20.78;58.28;100681.08;131169;1255;107440;-91
2023/09/16 12:13:49;;;;;;;2.90;2.30;;;;;;;20.80;58.70;100680.83;131125;1250;107067;-91
2023/09/16 12:16:55;;;;;;;5.70;2.60;;;;;;;20.84;58.60;100685.57;131130;1256;107475;-90
2023/09/16 12:20:01;;;;;;;4.30;2.70;;;;;;;20.87;58.47;100682.89;131112;1257;107344;-90
2023/09/16 12:23:08;;;;;;;3.10;2.40;;;;;;;20.92;59.09;100678.26;131024;1254;106809;-90
2023/09/16 12:26:14;;;;;;;4.20;2.50;;;;;;;20.96;58.91;100675.49;131107;1255;108399;-91
2023/09/16 12:29:20;;;;;;;3.60;2.40;;;;;;;20.99;59.35;100674.54;131103;1251;106810;-90
2023/09/16 12:32:26;;;;;;;4.10;3.00;;;;;;;21.03;59.39;100674.24;131071;1256;107630;-90
2023/09/16 12:35:32;;;;;;;3.20;2.60;;;;;;;21.07;59.32;100673.47;131185;1257;107655;-90
2023/09/16 12:38:38;;;;;;;3.50;2.40;;;;;;;21.09;58.55;100671.33;131125;1253;107760;-90
2023/09/16 12:41:46;;;;;;;2.80;2.20;;;;;;;21.11;58.58;100664.91;131084;1266;107092;-91
2023/09/16 12:44:52;;;;;;;3.80;2.20;;;;;;;21.08;57.78;100655.58;131130;1256;106265;-90
2023/09/16 12:47:59;;;;;;;3.20;2.20;;;;;;;21.13;58.03;100663.52;131140;1251;107025;-90
2023/09/16 12:51:06;;;;;;;3.90;2.40;;;;;;;21.16;58.24;100661.56;131115;1256;107020;-91
2023/09/16 12:54:13;;;;;;;2.30;2.00;;;;;;;21.19;57.70;100662.05;131151;1256;107379;-91
2023/09/16 12:57:19;;;;;;;4.60;2.50;;;;;;;21.21;58.23;100666.71;131050;1250;107453;-90
2023/09/16 13:00:26;;;;;;;3.80;2.60;;;;;;;21.23;57.35;100660.95;131130;1255;107043;-91
2023/09/16 13:03:38;;;;;;;2.70;2.10;;;;;;;21.27;57.88;100664.73;131075;1264;107436;-90
2023/09/16 13:06:44;;;;;;;8.20;2.20;;;;;;;21.30;57.78;100661.60;131112;1256;107384;-91
2023/09/16 13:09:50;;;;;;;3.00;2.00;;;;;;;21.31;57.51;100657.84;131157;1251;108137;-91
2023/09/16 13:12:57;;;;;;;2.80;2.20;;;;;;;21.33;57.72;100661.59;131100;1257;107696;-90
2023/09/16 13:16:04;;;;;;;2.10;1.90;;;;;;;21.32;56.33;100660.75;131106;1251;107411;-91
2023/09/16 13:19:20;;;;;;;2.40;2.10;;;;;;;21.32;56.36;100656.78;131091;1256;107437;-91
2023/09/16 13:22:26;;;;;;;2.90;2.00;;;;;;;21.33;56.98;100652.48;131103;1256;107636;-90
2023/09/16 13:25:34;;;;;;;3.40;2.30;;;;;;;21.34;55.99;100652.52;131133;1256;106573;-91
2023/09/16 13:28:41;;;;;;;2.90;1.90;;;;;;;21.36;56.67;100650.01;131083;1256;107216;-90
2023/09/16 13:31:58;;;;;;;3.40;2.20;;;;;;;21.38;56.83;100648.86;131076;1256;108866;-90
2023/09/16 13:35:05;;;;;;;2.70;2.10;;;;;;;21.38;57.12;100644.86;131168;1256;106572;-91
2023/09/16 13:38:11;;;;;;;4.10;2.20;;;;;;;21.39;57.43;100644.11;131078;1256;107393;-90
2023/09/16 13:41:17;;;;;;;2.50;2.20;;;;;;;21.39;56.68;100641.14;131139;1257;107478;-91
2023/09/16 13:44:24;;;;;;;3.10;2.10;;;;;;;21.40;57.02;100646.10;131126;1258;107516;-90
2023/09/16 13:47:29;;;;;;;2.50;2.20;;;;;;;21.42;57.16;100644.59;131076;1264;108365;-91
2023/09/16 13:50:35;;;;;;;3.20;2.10;;;;;;;21.42;57.11;100640.52;131105;1265;108058;-90
2023/09/16 13:53:41;;;;;;;2.90;2.20;;;;;;;21.43;57.15;100644.63;131089;1256;106929;-91
2023/09/16 13:56:47;;;;;;;5.30;2.20;;;;;;;21.42;56.54;100638.05;131032;1256;107335;-90
2023/09/16 13:59:52;;;;;;;2.90;2.10;;;;;;;21.41;56.86;100631.11;131084;1256;106981;-89
2023/09/16 14:02:58;;;;;;;2.70;2.10;;;;;;;21.41;56.93;100631.11;131112;1256;107770;-90
2023/09/16 14:06:04;;;;;;;3.50;2.30;;;;;;;21.41;56.62;100631.83;131088;1256;107433;-91
2023/09/16 14:09:10;;;;;;;3.10;2.30;;;;;;;21.41;56.73;100631.27;131089;1257;107452;-91
2023/09/16 14:12:16;;;;;;;3.10;2.10;;;;;;;21.41;56.28;100629.94;131074;1256;106589;-91